Ballycastle, United Kingdom
Current Conditions -  °F | °C
As of 1:50 AM on Monday 22 Dec 2014 (Local Time) from EGPI Reporting Station
Moderate Rain Moderate Rain  
Wind Chill: 50°   Ceiling: 800
Heat Index: 50°   Visibility: 2.7mi
Dew Point: 48°   Wind: 21mph
Humidity: 94%   Direction: 260°W
Pressure: 29.62"   Gusts: NA
Location:  55.2°N, 6.24°W
Report Text: EGPI 220150Z AUTO 26018KT 4400 RA BKN008/// SCT023/// 10/09 Q1003
Loading
Personal Weather Stations






























Interactive Weather Map New forecast layout! Learn more

10-Day Weather Forecast

Advertisements
Track Severe Weather on mobile